createdAt,value
2019-05-22T00:02:17.802Z,3.02
2019-05-22T00:04:52.459Z,3.40
2019-05-22T00:07:23.544Z,3.22
2019-05-22T00:09:56.036Z,4.10
2019-05-22T00:12:27.789Z,3.62
2019-05-22T00:14:57.963Z,3.87
2019-05-22T00:17:30.596Z,3.87
2019-05-22T00:20:03.483Z,3.37
2019-05-22T00:22:35.530Z,3.70
2019-05-22T00:25:08.080Z,3.90
2019-05-22T00:27:38.496Z,3.77
2019-05-22T00:30:10.720Z,3.80
2019-05-22T00:32:41.947Z,4.00
2019-05-22T00:35:14.631Z,4.00
2019-05-22T00:37:46.089Z,4.05
2019-05-22T00:40:18.256Z,4.62
2019-05-22T00:45:22.611Z,4.03
2019-05-22T00:47:54.423Z,4.22
2019-05-22T00:50:30.261Z,4.42
2019-05-22T00:53:03.021Z,4.28
2019-05-22T00:55:41.381Z,4.25
2019-05-22T00:58:13.731Z,4.20
2019-05-22T01:00:45.595Z,4.33
2019-05-22T01:03:17.349Z,4.12
2019-05-22T01:05:48.628Z,4.17
2019-05-22T01:08:20.507Z,3.27
2019-05-22T01:10:54.856Z,3.83
2019-05-22T01:13:28.080Z,4.10
2019-05-22T01:15:59.628Z,4.62
2019-05-22T01:18:30.241Z,4.50
2019-05-22T01:21:00.284Z,3.72
2019-05-22T01:23:30.936Z,5.10
2019-05-22T01:26:01.346Z,4.78
2019-05-22T01:28:33.440Z,5.10
2019-05-22T01:31:05.893Z,4.78
2019-05-22T01:33:38.420Z,5.28
2019-05-22T01:36:14.756Z,5.05
2019-05-22T01:38:45.875Z,5.40
2019-05-22T01:41:20.298Z,6.45
2019-05-22T01:43:52.158Z,5.70
2019-05-22T01:46:24.914Z,6.20
2019-05-22T01:48:59.624Z,6.03
2019-05-22T01:51:31.485Z,6.80
2019-05-22T01:54:02.642Z,6.58
2019-05-22T01:56:34.532Z,7.10
2019-05-22T01:59:07.217Z,7.87
2019-05-22T02:01:37.914Z,8.13
2019-05-22T02:04:08.372Z,7.60
2019-05-22T02:06:39.490Z,8.45
2019-05-22T02:09:21.684Z,9.03
2019-05-22T02:14:25.585Z,9.10
2019-05-22T02:16:57.567Z,9.65
2019-05-22T02:21:59.738Z,10.63
2019-05-22T02:24:30.039Z,10.40
2019-05-22T02:27:01.818Z,10.40
2019-05-22T02:29:32.653Z,10.05
2019-05-22T02:32:04.776Z,11.05
2019-05-22T02:34:35.621Z,11.95
2019-05-22T02:37:07.545Z,11.60
2019-05-22T02:39:37.865Z,11.18
2019-05-22T02:42:12.561Z,11.08
2019-05-22T02:44:43.767Z,11.80
2019-05-22T02:47:19.971Z,12.47
2019-05-22T02:49:50.350Z,14.28
2019-05-22T02:52:22.159Z,13.90
2019-05-22T02:54:52.472Z,14.45
2019-05-22T02:57:23.269Z,15.48
2019-05-22T02:59:53.631Z,18.02
2019-05-22T03:02:24.548Z,18.37
2019-05-22T03:04:59.265Z,19.15
2019-05-22T03:07:31.436Z,19.80
2019-05-22T03:10:03.623Z,18.60
2019-05-22T03:12:36.065Z,19.50
2019-05-22T03:15:13.171Z,21.23
2019-05-22T03:17:45.122Z,20.45
2019-05-22T03:20:18.852Z,21.80
2019-05-22T03:23:21.276Z,22.55
2019-05-22T03:25:51.305Z,22.37
2019-05-22T03:28:21.360Z,22.77
2019-05-22T03:30:51.722Z,23.27
2019-05-22T03:33:21.954Z,21.80
2019-05-22T03:36:10.676Z,23.10
2019-05-22T03:38:41.987Z,23.10
2019-05-22T03:41:14.104Z,23.67
2019-05-22T03:43:47.541Z,22.00
2019-05-22T03:46:32.588Z,22.37
2019-05-22T03:49:03.776Z,22.62
2019-05-22T03:51:35.171Z,22.03
2019-05-22T03:54:05.471Z,23.52
2019-05-22T03:56:39.010Z,21.33
2019-05-22T03:59:09.917Z,21.87
2019-05-22T04:01:40.198Z,21.37
2019-05-22T04:04:11.184Z,20.75
2019-05-22T04:06:41.485Z,22.75
2019-05-22T04:09:20.356Z,22.30
2019-05-22T04:11:52.236Z,22.20
2019-05-22T04:14:24.157Z,23.98
2019-05-22T04:16:54.383Z,22.77
2019-05-22T04:19:25.172Z,23.57
2019-05-22T04:21:56.173Z,23.32
2019-05-22T04:24:26.760Z,26.02
2019-05-22T04:26:56.960Z,26.77
2019-05-22T04:29:28.267Z,26.77
2019-05-22T04:32:15.230Z,26.48
2019-05-22T04:34:46.431Z,28.00
2019-05-22T04:37:17.544Z,27.50
2019-05-22T04:39:49.491Z,29.52
2019-05-22T04:42:20.690Z,27.75
2019-05-22T04:45:12.661Z,27.57
2019-05-22T04:47:45.723Z,30.17
2019-05-22T04:50:17.198Z,30.27
2019-05-22T04:52:49.361Z,29.40
2019-05-22T04:57:49.581Z,27.48
2019-05-22T05:00:21.648Z,27.67
2019-05-22T05:05:25.316Z,26.02
2019-05-22T05:07:56.506Z,26.37
2019-05-22T05:10:27.273Z,23.77
2019-05-22T05:12:59.140Z,24.80
2019-05-22T05:15:29.261Z,23.60
2019-05-22T05:17:59.484Z,22.98
2019-05-22T05:20:29.681Z,22.67
2019-05-22T05:22:59.935Z,21.68
2019-05-22T05:25:30.601Z,19.90
2019-05-22T05:28:01.288Z,21.05
2019-05-22T05:30:32.651Z,22.13
2019-05-22T05:33:03.641Z,21.60
2019-05-22T05:35:36.287Z,23.47
2019-05-22T05:38:06.612Z,23.38
2019-05-22T05:40:42.890Z,23.83
2019-05-22T05:43:15.374Z,26.50
2019-05-22T05:45:47.956Z,27.22
2019-05-22T05:48:20.902Z,28.57
2019-05-22T05:51:09.008Z,29.20
2019-05-22T05:54:01.127Z,29.60
2019-05-22T05:56:33.806Z,30.80
2019-05-22T05:59:06.576Z,29.37
2019-05-22T06:01:39.115Z,31.82
2019-05-22T06:04:10.004Z,32.15
2019-05-22T06:06:43.094Z,32.20
2019-05-22T06:09:21.196Z,31.37
2019-05-22T06:11:56.563Z,32.25
2019-05-22T06:14:30.062Z,29.98
2019-05-22T06:17:07.676Z,29.10
2019-05-22T06:19:49.309Z,30.08
2019-05-22T06:22:20.314Z,29.60
2019-05-22T06:25:04.608Z,28.80
2019-05-22T06:27:42.264Z,29.10
2019-05-22T06:30:21.742Z,29.23
2019-05-22T06:33:11.096Z,29.27
2019-05-22T06:35:42.387Z,29.18
2019-05-22T06:38:38.908Z,28.52
2019-05-22T06:41:09.902Z,29.05
2019-05-22T06:43:43.006Z,30.72
2019-05-22T06:46:16.179Z,29.90
2019-05-22T06:48:46.654Z,28.75
2019-05-22T06:51:19.383Z,29.50
2019-05-22T06:53:48.591Z,29.70
2019-05-22T06:56:18.644Z,29.65
2019-05-22T06:58:49.047Z,28.98
2019-05-22T07:01:19.331Z,28.23
2019-05-22T07:03:50.429Z,28.20
2019-05-22T07:06:20.625Z,27.60
2019-05-22T07:08:50.948Z,27.22
2019-05-22T07:11:21.821Z,27.37
2019-05-22T07:13:53.439Z,27.80
2019-05-22T07:16:24.443Z,26.65
2019-05-22T07:18:54.483Z,25.57
2019-05-22T07:21:33.610Z,26.70
2019-05-22T07:23:56.391Z,25.32
2019-05-22T07:26:26.856Z,25.43
2019-05-22T07:29:01.727Z,26.77
2019-05-22T07:31:30.383Z,26.82
2019-05-22T07:34:00.711Z,26.35
2019-05-22T07:36:32.779Z,25.23
2019-05-22T07:39:04.571Z,27.60
2019-05-22T07:41:35.338Z,25.35
2019-05-22T07:44:08.267Z,24.95
2019-05-22T07:46:40.092Z,24.07
2019-05-22T07:49:10.509Z,25.55
2019-05-22T07:51:51.862Z,23.60
2019-05-22T07:54:12.976Z,23.25
2019-05-22T07:56:44.812Z,22.32
2019-05-22T07:59:15.812Z,23.18
2019-05-22T08:01:45.780Z,22.55
2019-05-22T08:04:18.153Z,22.58
2019-05-22T08:06:48.448Z,22.77
2019-05-22T08:09:20.247Z,22.35
2019-05-22T08:11:50.344Z,23.07
2019-05-22T08:17:02.315Z,23.15
2019-05-22T08:19:33.057Z,22.95
2019-05-22T08:22:07.237Z,23.42
2019-05-22T08:24:35.556Z,22.27
2019-05-22T08:27:07.950Z,22.62
2019-05-22T08:29:38.156Z,20.70
2019-05-22T08:32:08.876Z,22.48
2019-05-22T08:34:40.696Z,22.42
2019-05-22T08:37:13.777Z,21.55
2019-05-22T08:39:44.061Z,21.75
2019-05-22T08:42:15.915Z,21.57
2019-05-22T08:44:47.107Z,22.40
2019-05-22T08:47:17.345Z,23.30
2019-05-22T08:49:48.161Z,20.32
2019-05-22T08:52:23.453Z,22.73
2019-05-22T08:54:53.491Z,23.18
2019-05-22T08:59:53.051Z,22.05
2019-05-22T09:02:24.251Z,22.20
2019-05-22T09:04:55.015Z,21.80
2019-05-22T09:07:25.377Z,22.82
2019-05-22T09:09:55.476Z,22.45
2019-05-22T09:12:26.076Z,22.77
2019-05-22T09:14:56.364Z,21.75
2019-05-22T09:17:26.427Z,21.75
2019-05-22T09:19:57.192Z,21.02
2019-05-22T09:22:40.054Z,20.02
2019-05-22T09:25:02.526Z,20.20
2019-05-22T09:27:34.076Z,19.63
2019-05-22T09:30:07.244Z,20.70
2019-05-22T09:32:37.299Z,20.60
2019-05-22T09:35:07.905Z,21.17
2019-05-22T09:37:38.395Z,21.45
2019-05-22T09:40:08.804Z,20.50
2019-05-22T09:42:38.992Z,21.02
2019-05-22T09:45:10.265Z,19.80
2019-05-22T09:47:40.855Z,21.33
2019-05-22T09:50:12.387Z,20.12
2019-05-22T09:52:56.870Z,21.27
2019-05-22T09:55:17.367Z,21.82
2019-05-22T09:57:48.521Z,22.20
2019-05-22T10:00:19.880Z,23.90
2019-05-22T10:02:50.172Z,24.63
2019-05-22T10:05:21.917Z,25.20
2019-05-22T10:08:00.411Z,25.68
2019-05-22T10:10:26.993Z,24.40
2019-05-22T10:15:28.170Z,24.52
2019-05-22T10:20:28.304Z,23.42
2019-05-22T10:23:14.110Z,23.52
2019-05-22T10:25:30.915Z,23.05
2019-05-22T10:28:01.311Z,24.02
2019-05-22T10:30:31.863Z,24.10
2019-05-22T10:33:02.203Z,23.42
2019-05-22T10:35:33.393Z,24.43
2019-05-22T10:38:03.561Z,24.85
2019-05-22T10:40:33.923Z,24.43
2019-05-22T10:43:04.186Z,24.20
2019-05-22T10:45:34.609Z,24.43
2019-05-22T10:48:05.424Z,24.35
2019-05-22T10:50:36.025Z,23.95
2019-05-22T10:53:06.527Z,22.90
2019-05-22T10:55:37.661Z,25.48
2019-05-22T10:58:08.293Z,24.07
2019-05-22T11:00:38.646Z,25.75
2019-05-22T11:03:09.501Z,25.57
2019-05-22T11:05:39.979Z,25.02
2019-05-22T11:08:10.374Z,25.75
2019-05-22T11:10:40.835Z,27.98
2019-05-22T11:13:11.926Z,23.32
2019-05-22T11:15:42.302Z,22.10
2019-05-22T11:18:12.817Z,22.42
2019-05-22T11:20:43.913Z,22.82
2019-05-22T11:23:14.375Z,21.33
2019-05-22T11:25:45.430Z,22.40
2019-05-22T11:28:15.391Z,24.55
2019-05-22T11:30:46.298Z,24.80
2019-05-22T11:33:16.493Z,25.85
2019-05-22T11:35:46.811Z,25.77
2019-05-22T11:38:17.457Z,25.30
2019-05-22T11:40:47.512Z,24.98
2019-05-22T11:43:17.544Z,24.75
2019-05-22T11:45:47.594Z,24.72
2019-05-22T11:48:17.893Z,23.47
2019-05-22T11:50:48.981Z,22.87
2019-05-22T11:53:19.283Z,21.93
2019-05-22T11:55:49.407Z,22.10
2019-05-22T11:58:19.565Z,21.93
2019-05-22T12:00:49.964Z,22.35
2019-05-22T12:03:22.742Z,22.42
2019-05-22T12:05:53.954Z,21.80
2019-05-22T12:08:25.348Z,20.23
2019-05-22T12:10:55.845Z,19.10
2019-05-22T12:13:26.931Z,20.92
2019-05-22T12:15:57.950Z,20.10
2019-05-22T12:18:28.329Z,20.10
2019-05-22T12:20:58.661Z,20.08
2019-05-22T12:23:29.448Z,20.23
2019-05-22T12:26:00.274Z,20.55
2019-05-22T12:28:30.379Z,19.90
2019-05-22T12:31:00.976Z,18.82
2019-05-22T12:33:31.569Z,18.67
2019-05-22T12:36:02.160Z,18.60
2019-05-22T12:38:32.938Z,18.67
2019-05-22T12:41:04.020Z,18.32
2019-05-22T12:43:35.061Z,18.95
2019-05-22T12:46:05.386Z,19.23
2019-05-22T12:48:36.563Z,17.95
2019-05-22T12:51:07.885Z,18.37
2019-05-22T12:53:38.482Z,19.00
2019-05-22T12:56:08.806Z,19.27
2019-05-22T12:58:39.472Z,18.20
2019-05-22T13:01:10.189Z,17.82
2019-05-22T13:03:40.599Z,18.73
2019-05-22T13:06:12.424Z,19.37
2019-05-22T13:08:43.392Z,19.07
2019-05-22T13:11:13.917Z,19.10
2019-05-22T13:13:44.092Z,18.50
2019-05-22T13:16:14.868Z,17.75
2019-05-22T13:18:45.773Z,16.62
2019-05-22T13:21:18.842Z,18.30
2019-05-22T13:23:51.082Z,17.95
2019-05-22T13:26:22.900Z,18.02
2019-05-22T13:28:54.239Z,18.95
2019-05-22T13:31:24.794Z,20.17
2019-05-22T13:33:55.565Z,19.55
2019-05-22T13:36:25.890Z,19.00
2019-05-22T13:38:56.230Z,19.42
2019-05-22T13:41:26.949Z,21.23
2019-05-22T13:43:57.415Z,20.48
2019-05-22T13:46:27.984Z,20.48
2019-05-22T13:48:58.213Z,19.92
2019-05-22T13:51:28.309Z,19.67
2019-05-22T13:53:59.427Z,19.95
2019-05-22T13:56:29.520Z,19.27
2019-05-22T13:59:00.751Z,21.50
2019-05-22T14:01:31.219Z,21.17
2019-05-22T14:04:02.849Z,21.50
2019-05-22T14:06:33.211Z,20.90
2019-05-22T14:09:03.961Z,23.20
2019-05-22T14:11:34.501Z,25.72
2019-05-22T14:14:05.101Z,24.18
2019-05-22T14:16:48.125Z,26.17
2019-05-22T14:19:07.413Z,24.67
2019-05-22T14:21:37.761Z,22.67
2019-05-22T14:24:08.215Z,21.85
2019-05-22T14:26:38.543Z,22.10
2019-05-22T14:29:09.014Z,22.90
2019-05-22T14:31:39.113Z,22.02
2019-05-22T14:34:09.905Z,23.20
2019-05-22T14:36:41.843Z,22.05
2019-05-22T14:39:14.509Z,21.10
2019-05-22T14:41:44.702Z,22.37
2019-05-22T14:44:15.035Z,22.35
2019-05-22T14:46:45.224Z,19.10
2019-05-22T14:49:15.657Z,20.30
2019-05-22T14:51:46.224Z,21.12
2019-05-22T14:54:17.516Z,19.92
2019-05-22T14:56:47.813Z,21.23
2019-05-22T14:59:18.636Z,21.35
2019-05-22T15:01:48.754Z,19.80
2019-05-22T15:04:19.208Z,19.65
2019-05-22T15:06:49.973Z,20.00
2019-05-22T15:09:20.399Z,19.35
2019-05-22T15:11:51.191Z,19.12
2019-05-22T15:14:21.319Z,19.17
2019-05-22T15:16:51.524Z,21.07
2019-05-22T15:19:22.888Z,20.90
2019-05-22T15:21:52.909Z,18.12
2019-05-22T15:24:23.797Z,17.07
2019-05-22T15:26:54.057Z,17.50
2019-05-22T15:29:25.082Z,16.85
2019-05-22T15:31:55.260Z,15.60
2019-05-22T15:34:26.536Z,15.13
2019-05-22T15:36:57.237Z,14.58
2019-05-22T15:39:30.830Z,14.95
2019-05-22T15:42:03.877Z,14.80
2019-05-22T15:44:34.337Z,15.30
2019-05-22T15:47:05.811Z,15.43
2019-05-22T15:49:37.035Z,15.50
2019-05-22T15:52:10.561Z,16.12
2019-05-22T15:54:41.459Z,16.02
2019-05-22T15:57:12.993Z,14.40
2019-05-22T15:59:45.196Z,15.88
2019-05-22T16:02:16.467Z,14.75
2019-05-22T16:04:47.688Z,15.18
2019-05-22T16:07:18.800Z,14.78
2019-05-22T16:09:50.688Z,13.47
2019-05-22T16:12:21.262Z,15.05
2019-05-22T16:14:53.164Z,13.50
2019-05-22T16:17:24.085Z,13.22
2019-05-22T16:19:54.511Z,12.90
2019-05-22T16:22:26.500Z,12.73
2019-05-22T16:24:56.905Z,11.65
2019-05-22T16:27:27.102Z,11.08
2019-05-22T16:29:58.163Z,11.03
2019-05-22T16:32:30.837Z,10.93
2019-05-22T16:35:01.303Z,11.50
2019-05-22T16:37:32.468Z,10.65
2019-05-22T16:40:02.729Z,9.93
2019-05-22T16:42:33.221Z,10.23
2019-05-22T16:45:04.788Z,10.38
2019-05-22T16:47:35.284Z,10.28
2019-05-22T16:50:07.652Z,9.05
2019-05-22T16:52:43.009Z,8.68
2019-05-22T16:55:14.694Z,9.13
2019-05-22T16:57:45.077Z,9.20
2019-05-22T17:00:16.346Z,9.33
2019-05-22T17:02:46.820Z,8.13
2019-05-22T17:05:18.493Z,8.73
2019-05-22T17:07:49.578Z,8.53
2019-05-22T17:10:20.350Z,8.70
2019-05-22T17:12:52.161Z,7.83
2019-05-22T17:15:23.518Z,7.97
2019-05-22T17:17:54.201Z,7.92
2019-05-22T17:20:26.641Z,8.70
2019-05-22T17:22:57.521Z,7.75
2019-05-22T17:25:29.473Z,8.53
2019-05-22T17:27:59.875Z,9.03
2019-05-22T17:30:33.965Z,8.90
2019-05-22T17:33:06.458Z,9.63
2019-05-22T17:35:37.600Z,8.78
2019-05-22T17:38:08.673Z,8.80
2019-05-22T17:40:39.965Z,8.07
2019-05-22T17:43:10.948Z,8.63
2019-05-22T17:45:43.790Z,8.40
2019-05-22T17:48:16.214Z,8.48
2019-05-22T17:50:47.463Z,7.40
2019-05-22T17:53:19.441Z,7.83
2019-05-22T17:58:24.905Z,7.35
2019-05-22T18:00:54.154Z,7.00
2019-05-22T18:03:24.634Z,6.90
2019-05-22T18:05:55.157Z,6.85
2019-05-22T18:08:26.306Z,6.65
2019-05-22T18:10:57.295Z,6.30
2019-05-22T18:13:28.544Z,6.65
2019-05-22T18:15:59.340Z,7.20
2019-05-22T18:18:29.702Z,7.20
2019-05-22T18:20:59.853Z,6.58
2019-05-22T18:23:29.903Z,7.20
2019-05-22T18:25:59.924Z,6.65
2019-05-22T18:28:30.135Z,6.95
2019-05-22T18:31:00.420Z,6.80
2019-05-22T18:33:30.508Z,6.83
2019-05-22T18:36:00.613Z,6.53
2019-05-22T18:38:30.651Z,7.20
2019-05-22T18:41:00.672Z,7.05
2019-05-22T18:43:31.006Z,6.80
2019-05-22T18:46:01.586Z,6.83
2019-05-22T18:48:33.090Z,6.85
2019-05-22T18:51:04.972Z,7.05
2019-05-22T18:53:35.356Z,7.00
2019-05-22T18:56:06.713Z,6.67
2019-05-22T18:58:37.561Z,6.58
2019-05-22T19:01:08.547Z,5.87
2019-05-22T19:03:38.657Z,6.37
2019-05-22T19:06:08.936Z,7.05
2019-05-22T19:08:39.823Z,6.83
2019-05-22T19:11:09.838Z,6.60
2019-05-22T19:13:40.316Z,6.50
2019-05-22T19:16:10.489Z,6.65
2019-05-22T19:18:40.857Z,6.92
2019-05-22T19:21:12.311Z,7.27
2019-05-22T19:23:42.435Z,6.92
2019-05-22T19:26:12.552Z,7.12
2019-05-22T19:28:44.398Z,6.70
2019-05-22T19:31:14.892Z,7.45
2019-05-22T19:33:44.980Z,7.08
2019-05-22T19:36:15.458Z,6.90
2019-05-22T19:38:46.448Z,7.10
2019-05-22T19:41:16.633Z,7.12
2019-05-22T19:43:47.131Z,6.87
2019-05-22T19:46:17.920Z,7.60
2019-05-22T19:48:48.520Z,7.30
2019-05-22T19:51:19.385Z,7.75
2019-05-22T19:53:51.122Z,7.90
2019-05-22T19:56:23.669Z,8.40
2019-05-22T19:58:52.938Z,8.50
2019-05-22T20:01:23.252Z,8.98
2019-05-22T20:03:53.541Z,8.95
2019-05-22T20:06:23.580Z,8.95
2019-05-22T20:08:53.628Z,8.88
2019-05-22T20:11:24.785Z,9.27
2019-05-22T20:13:55.481Z,8.98
2019-05-22T20:16:26.037Z,9.45
2019-05-22T20:18:56.622Z,9.88
2019-05-22T20:21:27.116Z,10.53
2019-05-22T20:23:57.312Z,10.48
2019-05-22T20:26:27.954Z,10.82
2019-05-22T20:28:58.953Z,11.43
2019-05-22T20:31:28.987Z,11.18
2019-05-22T20:33:59.204Z,10.43
2019-05-22T20:36:30.262Z,10.53
2019-05-22T20:39:00.868Z,10.88
2019-05-22T20:41:31.631Z,10.88
2019-05-22T20:44:02.355Z,10.63
2019-05-22T20:46:37.611Z,11.00
2019-05-22T20:49:06.320Z,11.28
2019-05-22T20:51:36.886Z,11.80
2019-05-22T20:54:08.178Z,11.10
2019-05-22T20:56:39.872Z,11.25
2019-05-22T20:59:10.867Z,11.75
2019-05-22T21:01:41.460Z,11.53
2019-05-22T21:04:13.648Z,11.53
2019-05-22T21:06:59.544Z,12.90
2019-05-22T21:09:28.340Z,12.28
2019-05-22T21:11:58.857Z,11.80
2019-05-22T21:14:29.886Z,12.33
2019-05-22T21:17:00.973Z,11.75
2019-05-22T21:19:31.589Z,11.80
2019-05-22T21:22:02.835Z,12.13
2019-05-22T21:24:36.269Z,13.13
2019-05-22T21:27:07.513Z,12.50
2019-05-22T21:29:38.211Z,12.00
2019-05-22T21:32:08.519Z,12.80
2019-05-22T21:34:40.132Z,12.80
2019-05-22T21:37:10.812Z,12.20
2019-05-22T21:39:42.099Z,12.98
2019-05-22T21:42:13.183Z,13.25
2019-05-22T21:44:43.299Z,12.82
2019-05-22T21:47:13.796Z,12.47
2019-05-22T21:49:44.285Z,13.38
2019-05-22T21:52:15.821Z,12.63
2019-05-22T21:54:46.217Z,12.23
2019-05-22T21:57:17.086Z,12.53
2019-05-22T21:59:47.381Z,13.00
2019-05-22T22:02:25.591Z,14.15
2019-05-22T22:04:55.837Z,12.58
2019-05-22T22:07:26.406Z,13.65
2019-05-22T22:09:59.005Z,13.85
2019-05-22T22:12:29.879Z,14.78
2019-05-22T22:15:00.000Z,14.03
2019-05-22T22:17:31.017Z,13.78
2019-05-22T22:20:02.500Z,14.03
2019-05-22T22:22:35.445Z,14.07
2019-05-22T22:25:09.294Z,14.20
2019-05-22T22:27:39.758Z,14.03
2019-05-22T22:30:17.467Z,13.38
2019-05-22T22:32:49.032Z,13.72
2019-05-22T22:35:19.821Z,13.08
2019-05-22T22:37:50.028Z,14.23
2019-05-22T22:40:24.005Z,13.40
2019-05-22T22:42:54.457Z,14.03
2019-05-22T22:45:33.921Z,14.47
2019-05-22T22:48:04.092Z,14.03
2019-05-22T22:50:36.201Z,15.53
2019-05-22T22:55:39.476Z,14.30
2019-05-22T22:58:17.361Z,14.73
2019-05-22T23:00:44.596Z,16.48
2019-05-22T23:03:18.300Z,14.65
2019-05-22T23:05:49.398Z,15.63
2019-05-22T23:08:29.639Z,15.97
2019-05-22T23:11:00.118Z,16.73
2019-05-22T23:13:31.961Z,16.20
2019-05-22T23:16:02.285Z,15.55
2019-05-22T23:18:45.228Z,14.25
2019-05-22T23:21:15.772Z,14.25
2019-05-22T23:23:46.031Z,15.10
2019-05-22T23:26:17.716Z,15.03
2019-05-22T23:28:48.144Z,14.85
2019-05-22T23:31:18.969Z,15.08
2019-05-22T23:33:50.098Z,16.40
2019-05-22T23:36:21.592Z,15.20
2019-05-22T23:38:52.497Z,17.37
2019-05-22T23:41:23.996Z,16.20
2019-05-22T23:43:55.718Z,16.90
2019-05-22T23:46:29.181Z,15.80
2019-05-22T23:48:59.572Z,16.37
2019-05-22T23:51:30.547Z,16.42
2019-05-22T23:54:01.935Z,16.93
2019-05-22T23:56:33.568Z,15.03
2019-05-22T23:59:03.783Z,17.12
